Saint George's, Canada
Current Conditions -  °F | °C
As of 4:00 PM on Friday 24 Oct 2014 (Local Time) from CYJT Reporting Station
Overcast Overcast  
Wind Chill: 13°   Ceiling: 2500
Heat Index: 13°   Visibility: 12mi
Dew Point:   Wind: 24mph
Humidity: 77%   Direction: 70°ENE
Pressure: 29.68"   Gusts: 30mph
Location:  48.43°N, 58.5°W
Report Text: CYJT 241800Z 07021G26KT 12SM OVC025 13/09 A2968 RMK SC8 SLP052
Loading
Personal Weather Stations






























Interactive Weather Map
Tropical Storm Tracking
New forecast layout! Learn more

10-Day Weather Forecast

Advertisements
Track Severe Weather on mobile